createdAt,value
2022-10-22T07:27:40.773Z,3.45
2022-10-22T07:30:08.656Z,3.33
2022-10-22T07:32:35.284Z,3.50
2022-10-22T07:35:02.111Z,4.38
2022-10-22T07:37:28.699Z,5.68
2022-10-22T07:39:55.583Z,5.07
2022-10-22T07:42:22.406Z,4.30
2022-10-22T07:44:49.563Z,3.90
2022-10-22T07:47:16.357Z,3.70
2022-10-22T07:49:43.200Z,6.40
2022-10-22T07:52:09.969Z,3.83
2022-10-22T07:54:37.052Z,3.67
2022-10-22T07:57:03.930Z,3.10
2022-10-22T07:59:30.963Z,3.85
2022-10-22T08:01:57.706Z,4.15
2022-10-22T08:04:25.139Z,5.82
2022-10-22T08:06:52.017Z,5.18
2022-10-22T08:09:19.114Z,4.67
2022-10-22T08:11:46.419Z,4.45
2022-10-22T08:14:13.551Z,4.90
2022-10-22T08:16:40.380Z,7.28
2022-10-22T08:19:07.428Z,5.32
2022-10-22T08:21:34.577Z,4.27
2022-10-22T08:24:01.798Z,4.93
2022-10-22T08:26:28.658Z,6.80
2022-10-22T08:28:55.644Z,6.22
2022-10-22T08:31:22.590Z,4.47
2022-10-22T08:33:49.992Z,5.13
2022-10-22T08:36:16.715Z,7.57
2022-10-22T08:38:43.745Z,7.55
2022-10-22T08:41:17.083Z,8.75
2022-10-22T08:43:59.226Z,5.95
2022-10-22T08:46:35.617Z,5.30
2022-10-22T08:49:05.688Z,6.40
2022-10-22T08:51:40.403Z,4.78
2022-10-22T08:54:26.643Z,7.70
2022-10-22T08:57:07.888Z,5.80
2022-10-22T08:59:46.621Z,4.93
2022-10-22T09:02:28.174Z,5.55
2022-10-22T09:05:10.027Z,4.90
2022-10-22T09:07:48.609Z,4.63
2022-10-22T09:10:17.674Z,7.65
2022-10-22T09:12:45.312Z,5.50
2022-10-22T09:15:15.017Z,8.00
2022-10-22T09:18:12.850Z,6.00
2022-10-22T09:20:50.821Z,6.93
2022-10-22T09:23:37.740Z,4.65
2022-10-22T09:26:13.392Z,4.67
2022-10-22T09:28:40.317Z,4.07
2022-10-22T09:31:14.996Z,4.60
2022-10-22T09:33:44.249Z,4.60
2022-10-22T09:36:21.525Z,3.28
2022-10-22T09:38:50.910Z,3.70
2022-10-22T09:41:27.166Z,4.00
2022-10-22T09:43:54.025Z,5.05
2022-10-22T09:46:28.557Z,3.40
2022-10-22T09:49:09.519Z,5.40
2022-10-22T09:51:57.581Z,4.90
2022-10-22T09:54:39.682Z,6.18
2022-10-22T09:57:22.050Z,4.22
2022-10-22T09:59:52.492Z,3.05
2022-10-22T10:02:38.116Z,4.70
2022-10-22T10:05:06.701Z,4.20
2022-10-22T10:07:35.675Z,3.40
2022-10-22T10:10:02.891Z,4.15
2022-10-22T10:12:42.049Z,3.47
2022-10-22T10:15:17.967Z,4.13
2022-10-22T10:18:14.662Z,6.33
2022-10-22T10:21:23.286Z,5.97
2022-10-22T10:23:57.913Z,6.15
2022-10-22T10:26:33.106Z,4.63
2022-10-22T10:29:42.325Z,5.70
2022-10-22T10:32:28.087Z,6.43
2022-10-22T10:35:16.668Z,4.30
2022-10-22T10:38:05.837Z,4.45
2022-10-22T10:40:50.104Z,4.18
2022-10-22T10:43:25.945Z,3.47
2022-10-22T10:46:23.233Z,4.77
2022-10-22T10:48:59.442Z,4.93
2022-10-22T10:51:55.868Z,4.40
2022-10-22T10:54:46.112Z,4.97
2022-10-22T10:57:35.323Z,3.40
2022-10-22T11:00:07.632Z,4.60
2022-10-22T11:03:13.292Z,3.25
2022-10-22T11:06:00.097Z,4.15
2022-10-22T11:08:31.897Z,4.88
2022-10-22T11:11:08.649Z,4.30
2022-10-22T11:13:43.732Z,3.30
2022-10-22T11:16:23.441Z,3.80
2022-10-22T11:19:22.507Z,2.70
2022-10-22T11:22:14.251Z,3.63
2022-10-22T11:24:55.507Z,3.30
2022-10-22T11:27:27.107Z,4.93
2022-10-22T11:30:02.805Z,4.38
2022-10-22T11:32:30.762Z,4.65
2022-10-22T11:35:04.243Z,5.63
2022-10-22T11:37:35.279Z,3.92
2022-10-22T11:40:18.471Z,5.07
2022-10-22T11:42:50.194Z,3.72
2022-10-22T11:45:17.142Z,3.60
2022-10-22T11:48:12.594Z,3.65
2022-10-22T11:50:55.056Z,5.15
2022-10-22T11:53:36.272Z,3.80
2022-10-22T11:56:06.483Z,5.00
2022-10-22T11:58:47.666Z,7.60
2022-10-22T12:01:26.810Z,5.80
2022-10-22T12:03:59.714Z,5.20
2022-10-22T12:06:28.210Z,7.33
2022-10-22T12:08:55.112Z,5.60
2022-10-22T12:11:37.353Z,4.50
2022-10-22T12:14:32.071Z,4.38
2022-10-22T12:17:05.091Z,6.45
2022-10-22T12:19:51.234Z,5.03
2022-10-22T12:22:25.856Z,4.28
2022-10-22T12:24:54.647Z,10.13
2022-10-22T12:27:23.258Z,3.60
2022-10-22T12:29:55.572Z,4.45
2022-10-22T12:32:23.012Z,7.13
2022-10-22T12:34:53.078Z,5.07
2022-10-22T12:37:20.083Z,3.05
2022-10-22T12:39:47.444Z,3.20
2022-10-22T12:42:18.095Z,5.82
2022-10-22T12:44:45.238Z,3.40
2022-10-22T12:47:17.003Z,5.65
2022-10-22T12:49:50.655Z,4.05
2022-10-22T12:52:21.560Z,3.33
2022-10-22T12:54:52.599Z,4.85
2022-10-22T12:57:21.282Z,4.73
2022-10-22T12:59:52.049Z,3.65
2022-10-22T13:02:24.657Z,6.70
2022-10-22T13:05:27.162Z,3.53
2022-10-22T13:08:03.390Z,3.13
2022-10-22T13:10:36.212Z,6.60
2022-10-22T13:13:06.826Z,4.80
2022-10-22T13:15:34.339Z,4.57
2022-10-22T13:18:20.081Z,5.50
2022-10-22T13:20:55.158Z,4.15
2022-10-22T13:23:24.489Z,2.97
2022-10-22T13:25:59.369Z,3.92
2022-10-22T13:28:27.693Z,7.60
2022-10-22T13:31:00.365Z,4.10
2022-10-22T13:33:34.764Z,3.05
2022-10-22T13:36:01.746Z,4.50
2022-10-22T13:38:29.313Z,4.80
2022-10-22T13:40:56.981Z,4.13
2022-10-22T13:43:25.083Z,5.28
2022-10-22T13:45:55.608Z,3.22
2022-10-22T13:48:24.788Z,3.80
2022-10-22T13:50:52.877Z,4.20
2022-10-22T13:53:25.437Z,4.55
2022-10-22T13:55:52.186Z,4.20
2022-10-22T13:58:21.377Z,4.68
2022-10-22T14:00:57.827Z,3.83
2022-10-22T14:03:35.714Z,4.00
2022-10-22T14:06:02.591Z,3.60
2022-10-22T14:08:29.641Z,4.45
2022-10-22T14:10:56.882Z,4.57
2022-10-22T14:13:23.819Z,3.13
2022-10-22T14:15:52.164Z,3.25
2022-10-22T14:18:26.286Z,7.22
2022-10-22T14:20:58.930Z,4.85
2022-10-22T14:23:28.981Z,6.07
2022-10-22T14:25:56.635Z,3.20
2022-10-22T14:28:23.549Z,4.45
2022-10-22T14:30:51.240Z,4.82
2022-10-22T14:33:19.374Z,4.32
2022-10-22T14:35:48.453Z,4.47
2022-10-22T14:38:16.113Z,3.47
2022-10-22T14:40:43.766Z,6.60
2022-10-22T14:43:14.612Z,3.30
2022-10-22T14:45:41.327Z,3.72
2022-10-22T14:48:08.463Z,3.90
2022-10-22T14:50:35.369Z,9.57
2022-10-22T14:53:02.319Z,5.40
2022-10-22T14:55:29.252Z,3.15
2022-10-22T14:57:56.388Z,3.30
2022-10-22T15:00:23.254Z,3.10
2022-10-22T15:02:50.337Z,3.30
2022-10-22T15:05:17.755Z,4.55
2022-10-22T15:07:45.409Z,4.82
2022-10-22T15:10:12.450Z,3.97
2022-10-22T15:12:39.474Z,2.90
2022-10-22T15:15:06.925Z,3.77
2022-10-22T15:17:33.973Z,4.35
2022-10-22T15:20:04.055Z,5.32
2022-10-22T15:22:37.443Z,4.65
2022-10-22T15:25:08.073Z,2.92
2022-10-22T15:27:35.773Z,3.47
2022-10-22T15:32:29.825Z,4.90
2022-10-22T15:34:56.625Z,3.30
2022-10-22T15:37:23.670Z,5.65
2022-10-22T15:39:50.402Z,5.70
2022-10-22T15:42:18.678Z,3.05
2022-10-22T15:44:45.897Z,3.80
2022-10-22T15:47:12.759Z,4.25
2022-10-22T15:49:39.840Z,6.05
2022-10-22T15:52:06.776Z,2.80
2022-10-22T15:54:33.551Z,3.35
2022-10-22T15:57:08.487Z,3.90
2022-10-22T15:59:36.025Z,3.25
2022-10-22T16:02:03.082Z,4.15
2022-10-22T16:04:30.109Z,3.20
2022-10-22T16:06:58.167Z,4.18
2022-10-22T16:09:27.136Z,2.67
2022-10-22T16:11:55.413Z,2.47
2022-10-22T16:14:23.558Z,3.50
2022-10-22T16:16:53.499Z,3.57
2022-10-22T16:19:22.254Z,3.47
2022-10-22T16:21:54.937Z,3.70
2022-10-22T16:24:22.698Z,3.38
2022-10-22T16:26:49.794Z,3.33
2022-10-22T16:29:16.553Z,3.43
2022-10-22T16:31:44.111Z,3.00
2022-10-22T16:34:11.941Z,3.28
2022-10-22T16:36:39.001Z,4.00
2022-10-22T16:39:06.418Z,4.15
2022-10-22T16:41:35.341Z,3.67
2022-10-22T16:44:07.744Z,3.10
2022-10-22T16:46:38.472Z,6.60
2022-10-22T16:49:06.231Z,4.30
2022-10-22T16:51:33.488Z,5.57
2022-10-22T16:54:00.412Z,3.60
2022-10-22T16:56:27.428Z,4.82
2022-10-22T16:58:56.667Z,4.28
2022-10-22T17:01:29.717Z,6.53
2022-10-22T17:03:59.291Z,4.95
2022-10-22T17:06:26.530Z,5.47
2022-10-22T17:08:53.274Z,5.35
2022-10-22T17:11:22.926Z,4.60
2022-10-22T17:13:52.627Z,6.70
2022-10-22T17:16:22.521Z,5.65
2022-10-22T17:18:49.504Z,5.97
2022-10-22T17:21:18.437Z,4.00
2022-10-22T17:23:46.103Z,5.43
2022-10-22T17:26:20.388Z,3.85
2022-10-22T17:28:48.011Z,5.55
2022-10-22T17:31:21.244Z,3.97
2022-10-22T17:33:49.955Z,5.32
2022-10-22T17:36:18.337Z,6.28
2022-10-22T17:38:49.445Z,8.10
2022-10-22T17:41:19.568Z,11.63
2022-10-22T17:46:27.353Z,8.35
2022-10-22T17:49:00.047Z,10.18
2022-10-22T17:51:28.142Z,8.45
2022-10-22T17:53:55.037Z,13.85
2022-10-22T17:56:24.896Z,12.77
2022-10-22T17:58:52.207Z,8.57
2022-10-22T18:01:28.480Z,9.52
2022-10-22T18:03:59.345Z,6.72
2022-10-22T18:06:26.625Z,6.65
2022-10-22T18:11:22.308Z,10.27
2022-10-22T18:13:53.380Z,9.23
2022-10-22T18:16:20.637Z,8.75
2022-10-22T18:18:53.102Z,9.00
2022-10-22T18:21:21.314Z,14.17
2022-10-22T18:23:48.113Z,17.90
2022-10-22T18:26:17.939Z,17.13
2022-10-22T18:28:46.329Z,20.17
2022-10-22T18:31:17.458Z,22.80
2022-10-22T18:33:44.298Z,20.93
2022-10-22T18:36:13.272Z,12.48
2022-10-22T18:38:40.233Z,16.63
2022-10-22T18:41:09.699Z,13.73
2022-10-22T18:43:36.913Z,11.10
2022-10-22T18:46:07.376Z,12.93
2022-10-22T18:48:35.141Z,15.30
2022-10-22T18:51:05.755Z,11.65
2022-10-22T18:53:33.121Z,9.85
2022-10-22T18:56:00.364Z,12.10
2022-10-22T18:58:27.024Z,12.90
2022-10-22T19:00:53.885Z,21.38
2022-10-22T19:03:20.519Z,17.90
2022-10-22T19:05:54.260Z,16.60
2022-10-22T19:08:23.173Z,16.02
2022-10-22T19:10:50.138Z,13.50
2022-10-22T19:13:18.890Z,10.93
2022-10-22T19:15:45.721Z,10.70
2022-10-22T19:18:13.249Z,10.75
2022-10-22T19:20:40.128Z,10.88
2022-10-22T19:23:07.513Z,9.00
2022-10-22T19:25:35.086Z,8.07
2022-10-22T19:28:01.809Z,8.95
2022-10-22T19:30:28.623Z,8.18
2022-10-22T19:32:55.356Z,9.85
2022-10-22T19:35:22.406Z,10.63
2022-10-22T19:37:49.193Z,8.95
2022-10-22T19:40:16.059Z,11.32
2022-10-22T19:42:44.534Z,9.13
2022-10-22T19:45:11.889Z,8.57
2022-10-22T19:47:38.809Z,10.00
2022-10-22T19:50:06.261Z,9.90
2022-10-22T19:52:33.593Z,13.82
2022-10-22T19:55:00.395Z,9.13
2022-10-22T19:57:27.223Z,8.85
2022-10-22T19:59:53.977Z,9.80
2022-10-22T20:02:20.592Z,11.70
2022-10-22T20:04:49.956Z,9.52
2022-10-22T20:07:16.902Z,10.98
2022-10-22T20:09:43.863Z,12.60
2022-10-22T20:12:10.498Z,14.63
2022-10-22T20:14:37.504Z,11.27
2022-10-22T20:17:04.556Z,11.15
2022-10-22T20:19:32.460Z,10.30
2022-10-22T20:24:30.900Z,11.07
2022-10-22T20:26:57.583Z,14.68
2022-10-22T20:29:24.621Z,12.60
2022-10-22T20:31:51.558Z,10.20
2022-10-22T20:34:18.434Z,13.32
2022-10-22T20:36:45.088Z,11.53
2022-10-22T20:39:14.974Z,12.00
2022-10-22T20:41:41.903Z,13.88
2022-10-22T20:44:14.564Z,11.65
2022-10-22T20:46:41.239Z,14.57
2022-10-22T20:49:20.572Z,12.50
2022-10-22T20:51:47.232Z,9.50
2022-10-22T20:54:15.089Z,10.77
2022-10-22T20:56:42.305Z,9.27
2022-10-22T20:59:11.089Z,10.60
2022-10-22T21:01:40.824Z,12.73
2022-10-22T21:04:08.161Z,8.13
2022-10-22T21:06:38.260Z,7.93
2022-10-22T21:09:06.853Z,18.63
2022-10-22T21:11:34.589Z,19.13
2022-10-22T21:14:02.919Z,10.87
2022-10-22T21:16:30.037Z,11.43
2022-10-22T21:18:56.950Z,10.48
2022-10-22T21:21:23.655Z,12.45
2022-10-22T21:23:51.311Z,13.38
2022-10-22T21:26:19.496Z,10.53
2022-10-22T21:28:46.942Z,12.40
2022-10-22T21:31:20.534Z,11.40
2022-10-22T21:33:49.911Z,9.95
2022-10-22T21:36:21.668Z,13.10
2022-10-22T21:38:53.713Z,9.70
2022-10-22T21:41:22.466Z,10.73
2022-10-22T21:43:50.112Z,11.05
2022-10-22T21:46:22.727Z,15.30
2022-10-22T21:49:01.863Z,11.75
2022-10-22T21:51:33.285Z,12.13
2022-10-22T21:54:00.279Z,11.45
2022-10-22T21:56:30.276Z,22.67
2022-10-22T21:58:57.071Z,9.63
2022-10-22T22:01:24.170Z,11.43
2022-10-22T22:03:53.015Z,16.07
2022-10-22T22:06:23.236Z,15.73
2022-10-22T22:08:53.099Z,22.42
2022-10-22T22:11:23.509Z,19.60
2022-10-22T22:13:51.742Z,14.77
2022-10-22T22:16:28.100Z,13.37
2022-10-22T22:19:00.959Z,14.63
2022-10-22T22:21:28.060Z,17.23
2022-10-22T22:23:55.022Z,10.30
2022-10-22T22:26:28.719Z,12.45
2022-10-22T22:28:59.267Z,11.60
2022-10-22T22:31:31.965Z,14.45
2022-10-22T22:34:13.828Z,10.80
2022-10-22T22:36:43.094Z,11.35
2022-10-22T22:39:15.915Z,9.60
2022-10-22T22:41:43.096Z,8.80
2022-10-22T22:44:10.553Z,9.40
2022-10-22T22:46:37.368Z,18.75
2022-10-22T22:49:05.276Z,13.35
2022-10-22T22:51:32.236Z,15.05
2022-10-22T22:54:00.212Z,14.40
2022-10-22T22:56:29.834Z,15.55
2022-10-22T22:58:57.428Z,12.95
2022-10-22T23:01:27.363Z,13.98
2022-10-22T23:03:57.076Z,9.93
2022-10-22T23:06:25.817Z,10.70
2022-10-22T23:08:53.977Z,15.23
2022-10-22T23:11:22.841Z,10.80
2022-10-22T23:13:53.664Z,8.27
2022-10-22T23:16:22.677Z,10.48
2022-10-22T23:18:50.356Z,9.90
2022-10-22T23:21:22.441Z,10.00
2022-10-22T23:23:52.972Z,10.15
2022-10-22T23:26:25.760Z,9.05
2022-10-22T23:28:53.209Z,8.65
2022-10-22T23:31:24.582Z,10.23
2022-10-22T23:33:51.795Z,10.18
2022-10-22T23:36:18.555Z,15.27
2022-10-22T23:38:45.518Z,8.38
2022-10-22T23:41:12.305Z,11.90
2022-10-22T23:43:39.372Z,11.37
2022-10-22T23:46:08.021Z,10.65
2022-10-22T23:48:35.694Z,10.43
2022-10-22T23:51:10.974Z,14.70
2022-10-22T23:53:39.008Z,10.30
2022-10-22T23:56:08.426Z,9.03
2022-10-22T23:58:35.837Z,8.88
